createdAt,value
2018-08-25T00:00:01.188Z,99.9
2018-08-25T00:01:08.410Z,99.9
2018-08-25T00:02:15.873Z,99.9
2018-08-25T00:03:23.091Z,99.9
2018-08-25T00:04:30.528Z,99.9
2018-08-25T00:05:37.767Z,99.9
2018-08-25T00:06:45.004Z,99.9
2018-08-25T00:07:51.969Z,99.9
2018-08-25T00:08:59.202Z,99.9
2018-08-25T00:10:06.438Z,99.9
2018-08-25T00:11:13.896Z,99.9
2018-08-25T00:12:21.160Z,99.9
2018-08-25T00:13:28.612Z,99.9
2018-08-25T00:14:35.836Z,99.9
2018-08-25T00:15:42.999Z,99.9
2018-08-25T00:16:50.237Z,99.9
2018-08-25T00:17:57.478Z,99.9
2018-08-25T00:19:04.728Z,99.9
2018-08-25T00:20:11.940Z,99.9
2018-08-25T00:21:19.169Z,99.9
2018-08-25T00:22:26.417Z,99.9
2018-08-25T00:23:33.652Z,99.9
2018-08-25T00:24:40.905Z,99.9
2018-08-25T00:25:48.184Z,99.9
2018-08-25T00:26:55.128Z,99.9
2018-08-25T00:28:02.346Z,99.9
2018-08-25T00:29:09.802Z,99.9
2018-08-25T00:30:16.748Z,99.9
2018-08-25T00:31:24.189Z,99.9
2018-08-25T00:32:31.398Z,99.9
2018-08-25T00:33:38.629Z,99.9
2018-08-25T00:34:45.867Z,99.9
2018-08-25T00:35:53.106Z,99.9
2018-08-25T00:37:00.065Z,99.9
2018-08-25T00:38:07.293Z,99.9
2018-08-25T00:39:14.245Z,99.9
2018-08-25T00:40:21.698Z,99.9
2018-08-25T00:41:28.921Z,99.9
2018-08-25T00:42:36.373Z,99.9
2018-08-25T00:43:43.609Z,99.9
2018-08-25T00:44:50.837Z,99.9
2018-08-25T00:45:58.058Z,99.9
2018-08-25T00:47:05.295Z,99.9
2018-08-25T00:48:12.510Z,99.9
2018-08-25T00:49:19.742Z,99.9
2018-08-25T00:50:26.966Z,99.9
2018-08-25T00:51:34.204Z,99.9
2018-08-25T00:52:41.422Z,99.9
2018-08-25T00:53:48.673Z,99.9
2018-08-25T00:54:55.892Z,99.9
2018-08-25T00:56:03.112Z,99.9
2018-08-25T00:57:10.335Z,99.9
2018-08-25T00:58:17.787Z,99.9
2018-08-25T00:59:25.174Z,99.9
2018-08-25T01:00:32.843Z,99.9
2018-08-25T01:01:40.090Z,99.9
2018-08-25T01:02:47.036Z,99.9
2018-08-25T01:03:54.255Z,99.9
2018-08-25T01:05:01.215Z,99.9
2018-08-25T01:06:08.431Z,99.9
2018-08-25T01:07:15.618Z,99.9
2018-08-25T01:08:22.841Z,99.9
2018-08-25T01:09:30.002Z,99.9
2018-08-25T01:10:37.221Z,99.9
2018-08-25T01:11:44.440Z,99.9
2018-08-25T01:12:51.713Z,99.9
2018-08-25T01:13:58.942Z,99.9
2018-08-25T01:15:06.174Z,99.9
2018-08-25T01:16:13.406Z,99.9
2018-08-25T01:17:20.621Z,99.9
2018-08-25T01:18:28.077Z,99.9
2018-08-25T01:19:35.295Z,99.9
2018-08-25T01:20:42.748Z,99.9
2018-08-25T01:21:49.982Z,99.9
2018-08-25T01:22:57.236Z,99.9
2018-08-25T01:24:04.454Z,99.9
2018-08-25T01:25:11.887Z,99.9
2018-08-25T01:26:19.102Z,99.9
2018-08-25T01:27:26.558Z,99.9
2018-08-25T01:28:33.795Z,99.9
2018-08-25T01:29:41.022Z,99.9
2018-08-25T01:30:48.263Z,99.9
2018-08-25T01:31:55.485Z,99.9
2018-08-25T01:33:02.718Z,99.9
2018-08-25T01:34:10.171Z,99.9
2018-08-25T01:35:17.387Z,99.9
2018-08-25T01:36:24.843Z,99.9
2018-08-25T01:37:31.779Z,99.9
2018-08-25T01:38:39.235Z,99.9
2018-08-25T01:39:46.472Z,99.9
2018-08-25T01:40:53.700Z,99.9
2018-08-25T01:42:00.669Z,99.9
2018-08-25T01:43:07.906Z,99.9
2018-08-25T01:44:15.162Z,99.9
2018-08-25T01:45:22.602Z,99.9
2018-08-25T01:46:29.834Z,99.9
2018-08-25T01:47:37.011Z,99.9
2018-08-25T01:48:43.958Z,99.9
2018-08-25T01:49:51.111Z,99.9
2018-08-25T01:50:58.057Z,99.9
2018-08-25T01:52:05.274Z,99.9
2018-08-25T01:53:12.497Z,99.9
2018-08-25T01:54:19.460Z,99.9
2018-08-25T01:55:26.676Z,99.9
2018-08-25T01:56:33.908Z,99.9
2018-08-25T01:57:41.143Z,99.9
2018-08-25T01:58:48.593Z,99.9
2018-08-25T01:59:55.827Z,99.9
2018-08-25T02:01:03.076Z,99.9
2018-08-25T02:02:10.306Z,99.9
2018-08-25T02:03:17.539Z,99.9
2018-08-25T02:04:24.495Z,99.9
2018-08-25T02:05:31.750Z,99.9
2018-08-25T02:06:38.708Z,99.9
2018-08-25T02:07:45.932Z,99.9
2018-08-25T02:08:53.171Z,99.9
2018-08-25T02:10:00.409Z,99.9
2018-08-25T02:11:07.646Z,99.9
2018-08-25T02:12:14.591Z,99.9
2018-08-25T02:13:21.841Z,99.9
2018-08-25T02:14:29.077Z,99.9
2018-08-25T02:15:36.309Z,99.9
2018-08-25T02:16:43.556Z,99.9
2018-08-25T02:17:50.498Z,99.9
2018-08-25T02:18:57.953Z,99.9
2018-08-25T02:20:04.919Z,99.9
2018-08-25T02:21:12.367Z,99.9
2018-08-25T02:22:19.321Z,99.9
2018-08-25T02:23:26.289Z,99.9
2018-08-25T02:24:33.504Z,99.9
2018-08-25T02:25:40.935Z,99.9
2018-08-25T02:26:48.150Z,99.9
2018-08-25T02:27:55.372Z,99.9
2018-08-25T02:29:02.335Z,99.9
2018-08-25T02:30:09.323Z,99.9
2018-08-25T02:31:16.547Z,99.9
2018-08-25T02:32:23.798Z,99.9
2018-08-25T02:33:31.081Z,99.9
2018-08-25T02:34:38.063Z,99.9
2018-08-25T02:35:45.293Z,99.9
2018-08-25T02:36:52.733Z,99.9
2018-08-25T02:37:59.966Z,99.9
2018-08-25T02:39:07.453Z,99.9
2018-08-25T02:40:14.696Z,99.9
2018-08-25T02:41:21.922Z,99.9
2018-08-25T02:42:29.155Z,99.9
2018-08-25T02:43:36.120Z,99.9
2018-08-25T02:44:43.351Z,99.9
2018-08-25T02:45:50.601Z,99.9
2018-08-25T02:46:57.822Z,99.9
2018-08-25T02:48:05.253Z,99.9
2018-08-25T02:49:12.470Z,99.9
2018-08-25T02:50:19.691Z,99.9
2018-08-25T02:51:26.654Z,99.9
2018-08-25T02:52:33.888Z,99.9
2018-08-25T02:53:41.120Z,99.9
2018-08-25T02:54:48.343Z,99.9
2018-08-25T02:55:55.565Z,99.9
2018-08-25T02:57:03.011Z,99.9
2018-08-25T02:58:10.232Z,99.9
2018-08-25T02:59:17.674Z,99.9
2018-08-25T03:00:24.894Z,99.9
2018-08-25T03:01:32.124Z,99.9
2018-08-25T03:02:39.352Z,99.9
2018-08-25T03:03:46.601Z,99.9
2018-08-25T03:04:53.842Z,99.9
2018-08-25T03:06:01.073Z,99.9
2018-08-25T03:07:08.304Z,99.9
2018-08-25T03:08:15.532Z,99.9
2018-08-25T03:09:22.768Z,99.9
2018-08-25T03:10:30.004Z,99.9
2018-08-25T03:11:37.230Z,99.9
2018-08-25T03:12:44.683Z,99.9
2018-08-25T03:13:51.724Z,99.9
2018-08-25T03:14:59.531Z,99.9
2018-08-25T03:16:06.743Z,99.9
2018-08-25T03:17:14.193Z,99.9
2018-08-25T03:18:21.425Z,99.9
2018-08-25T03:19:28.382Z,99.9
2018-08-25T03:20:35.043Z,99.9
2018-08-25T03:21:42.000Z,99.9
2018-08-25T03:22:49.245Z,99.9
2018-08-25T03:23:56.698Z,99.9
2018-08-25T03:25:03.920Z,99.9
2018-08-25T03:26:11.351Z,99.9
2018-08-25T03:27:18.568Z,99.9
2018-08-25T03:28:26.002Z,99.9
2018-08-25T03:29:33.237Z,99.9
2018-08-25T03:30:40.453Z,99.9
2018-08-25T03:31:47.690Z,99.9
2018-08-25T03:32:54.942Z,99.9
2018-08-25T03:34:01.906Z,99.9
2018-08-25T03:35:09.397Z,99.9
2018-08-25T03:36:16.353Z,99.9
2018-08-25T03:37:23.242Z,99.9
2018-08-25T03:38:30.456Z,99.9
2018-08-25T03:39:37.712Z,99.9
2018-08-25T03:40:44.930Z,99.9
2018-08-25T03:41:52.380Z,99.9
2018-08-25T03:42:59.665Z,99.9
2018-08-25T03:44:06.835Z,99.9
2018-08-25T03:45:14.052Z,99.9
2018-08-25T03:46:21.291Z,99.9
2018-08-25T03:47:28.252Z,99.9
2018-08-25T03:48:35.481Z,99.9
2018-08-25T03:49:42.716Z,99.9
2018-08-25T03:50:49.652Z,99.9
2018-08-25T03:51:56.872Z,99.9
2018-08-25T03:53:04.317Z,99.9
2018-08-25T03:54:11.535Z,99.9
2018-08-25T03:55:18.990Z,99.9
2018-08-25T03:56:26.281Z,99.9
2018-08-25T03:57:33.518Z,99.9
2018-08-25T03:58:40.751Z,99.9
2018-08-25T03:59:47.996Z,99.9
2018-08-25T04:00:55.239Z,99.9
2018-08-25T04:02:02.475Z,99.9
2018-08-25T04:03:09.435Z,99.9
2018-08-25T04:04:16.871Z,99.9
2018-08-25T04:05:24.096Z,99.9
2018-08-25T04:06:31.528Z,99.9
2018-08-25T04:07:38.740Z,99.9
2018-08-25T04:08:45.690Z,99.9
2018-08-25T04:09:52.970Z,99.9
2018-08-25T04:11:00.187Z,99.9
2018-08-25T04:12:07.407Z,99.9
2018-08-25T04:13:14.624Z,99.9
2018-08-25T04:14:21.859Z,99.9
2018-08-25T04:15:29.089Z,99.9
2018-08-25T04:16:36.326Z,99.9
2018-08-25T04:17:43.540Z,99.9
2018-08-25T04:18:50.763Z,99.9
2018-08-25T04:19:57.935Z,99.9
2018-08-25T04:21:05.155Z,99.9
2018-08-25T04:22:12.640Z,99.9
2018-08-25T04:23:20.111Z,99.9
2018-08-25T04:24:27.325Z,99.9
2018-08-25T04:25:34.560Z,99.9
2018-08-25T04:26:41.498Z,99.9
2018-08-25T04:27:48.732Z,99.9
2018-08-25T04:28:55.979Z,99.9
2018-08-25T04:30:03.198Z,99.9
2018-08-25T04:31:10.636Z,99.9
2018-08-25T04:32:17.851Z,99.9
2018-08-25T04:33:25.135Z,99.9
2018-08-25T04:34:32.653Z,99.9
2018-08-25T04:35:39.882Z,99.9
2018-08-25T04:36:47.215Z,99.9
2018-08-25T04:37:54.466Z,99.9
2018-08-25T04:39:01.695Z,99.9
2018-08-25T04:40:08.930Z,99.9
2018-08-25T04:41:16.237Z,99.9
2018-08-25T04:42:23.784Z,99.9
2018-08-25T04:43:30.992Z,99.9
2018-08-25T04:44:38.228Z,99.9
2018-08-25T04:45:45.450Z,99.9
2018-08-25T04:46:52.629Z,99.9
2018-08-25T04:47:59.841Z,99.9
2018-08-25T04:49:07.298Z,99.9
2018-08-25T04:50:14.512Z,99.9
2018-08-25T04:51:21.705Z,99.9
2018-08-25T04:52:28.920Z,99.9
2018-08-25T04:53:36.156Z,99.9
2018-08-25T04:54:43.367Z,99.9
2018-08-25T04:55:50.581Z,99.9
2018-08-25T04:56:57.798Z,99.9
2018-08-25T04:58:05.014Z,99.9
2018-08-25T04:59:12.233Z,99.9
2018-08-25T05:00:19.682Z,99.9
2018-08-25T05:01:26.900Z,99.9
2018-08-25T05:02:34.060Z,99.9
2018-08-25T05:03:41.278Z,99.9
2018-08-25T05:04:48.510Z,99.9
2018-08-25T05:05:55.466Z,99.9
2018-08-25T05:07:02.700Z,99.9
2018-08-25T05:08:09.917Z,99.9
2018-08-25T05:09:17.133Z,99.9
2018-08-25T05:10:24.364Z,99.9
2018-08-25T05:11:31.612Z,99.9
2018-08-25T05:12:38.848Z,99.9
2018-08-25T05:13:46.062Z,99.9
2018-08-25T05:14:53.272Z,99.9
2018-08-25T05:16:00.721Z,99.9
2018-08-25T05:17:07.937Z,99.9
2018-08-25T05:18:15.388Z,99.9
2018-08-25T05:19:22.327Z,99.9
2018-08-25T05:20:28.987Z,99.9
2018-08-25T05:21:35.945Z,99.9
2018-08-25T05:22:43.177Z,99.9
2018-08-25T05:23:50.415Z,99.9
2018-08-25T05:24:57.644Z,99.9
2018-08-25T05:26:04.860Z,99.9
2018-08-25T05:27:12.306Z,99.9
2018-08-25T05:28:19.245Z,99.9
2018-08-25T05:29:26.708Z,99.9
2018-08-25T05:30:33.909Z,99.9
2018-08-25T05:31:41.133Z,99.9
2018-08-25T05:32:48.362Z,99.9
2018-08-25T05:33:55.578Z,99.9
2018-08-25T05:35:02.809Z,99.9
2018-08-25T05:36:09.769Z,99.9
2018-08-25T05:37:16.709Z,99.9
2018-08-25T05:38:24.162Z,99.9
2018-08-25T05:39:31.102Z,99.9
2018-08-25T05:40:38.271Z,99.9
2018-08-25T05:41:45.485Z,99.9
2018-08-25T05:42:52.462Z,99.9
2018-08-25T05:43:59.400Z,99.9
2018-08-25T05:45:06.833Z,99.9
2018-08-25T05:46:14.062Z,99.9
2018-08-25T05:47:21.245Z,99.9
2018-08-25T05:48:28.474Z,99.9
2018-08-25T05:49:35.691Z,99.9
2018-08-25T05:50:42.933Z,99.9
2018-08-25T05:51:50.182Z,99.9
2018-08-25T05:52:57.414Z,99.9
2018-08-25T05:54:04.633Z,99.9
2018-08-25T05:55:11.850Z,99.9
2018-08-25T05:56:19.028Z,99.9
2018-08-25T05:57:26.251Z,99.9
2018-08-25T05:58:33.805Z,99.9
2018-08-25T05:59:40.769Z,99.9
2018-08-25T06:00:48.004Z,99.9
2018-08-25T06:01:55.231Z,99.9
2018-08-25T06:03:02.466Z,99.9
2018-08-25T06:04:09.690Z,99.9
2018-08-25T06:05:17.121Z,99.9
2018-08-25T06:06:24.341Z,99.9
2018-08-25T06:07:31.919Z,99.9
2018-08-25T06:08:39.146Z,99.9
2018-08-25T06:09:46.591Z,99.9
2018-08-25T06:10:53.853Z,99.9
2018-08-25T06:12:01.079Z,99.9
2018-08-25T06:13:08.315Z,99.9
2018-08-25T06:14:15.551Z,99.9
2018-08-25T06:16:44.401Z,99.9
2018-08-25T06:17:51.642Z,99.9
2018-08-25T06:18:58.854Z,99.9
2018-08-25T06:20:06.133Z,99.9
2018-08-25T06:21:13.359Z,99.9
2018-08-25T06:22:20.597Z,99.9
2018-08-25T06:23:27.506Z,99.9
2018-08-25T06:24:34.745Z,99.9
2018-08-25T06:25:42.183Z,99.9
2018-08-25T06:26:49.404Z,99.9
2018-08-25T06:27:56.637Z,99.9
2018-08-25T06:29:03.885Z,99.9
2018-08-25T06:30:10.931Z,99.9
2018-08-25T06:31:18.462Z,99.9
2018-08-25T06:32:25.702Z,99.9
2018-08-25T06:33:32.652Z,99.9
2018-08-25T06:34:40.107Z,99.9
2018-08-25T06:35:47.340Z,99.9
2018-08-25T06:36:54.798Z,99.9
2018-08-25T06:38:02.062Z,99.9
2018-08-25T06:39:09.292Z,99.9
2018-08-25T06:40:16.530Z,99.9
2018-08-25T06:41:23.978Z,99.9
2018-08-25T06:42:31.210Z,99.9
2018-08-25T06:43:38.690Z,99.9
2018-08-25T06:44:46.252Z,99.9
2018-08-25T06:45:53.473Z,99.9
2018-08-25T06:47:00.689Z,99.9
2018-08-25T06:48:07.907Z,99.9
2018-08-25T06:49:15.124Z,99.9
2018-08-25T06:50:22.607Z,99.9
2018-08-25T06:51:29.562Z,99.9
2018-08-25T06:52:37.017Z,99.9
2018-08-25T06:53:44.240Z,99.9
2018-08-25T06:54:51.484Z,99.9
2018-08-25T06:55:58.684Z,99.9
2018-08-25T06:57:05.895Z,99.9
2018-08-25T06:58:13.129Z,99.9
2018-08-25T06:59:20.160Z,99.9
2018-08-25T07:00:27.473Z,99.9
2018-08-25T07:01:34.689Z,99.9
2018-08-25T07:02:41.923Z,99.9
2018-08-25T07:03:48.864Z,99.9
2018-08-25T07:04:55.805Z,99.9
2018-08-25T07:06:03.101Z,99.9
2018-08-25T07:07:10.822Z,99.9
2018-08-25T07:08:17.779Z,99.9
2018-08-25T07:09:24.995Z,99.9
2018-08-25T07:10:32.236Z,99.9
2018-08-25T07:11:39.509Z,99.9
2018-08-25T07:12:46.829Z,99.9
2018-08-25T07:13:54.149Z,99.9
2018-08-25T07:15:01.116Z,99.9
2018-08-25T07:16:08.335Z,99.9
2018-08-25T07:17:15.795Z,99.9
2018-08-25T07:19:29.645Z,99.9
2018-08-25T07:20:36.860Z,99.9
2018-08-25T07:21:44.075Z,99.9
2018-08-25T07:22:51.308Z,99.9
2018-08-25T07:23:58.248Z,99.9
2018-08-25T07:25:05.209Z,99.9
2018-08-25T07:26:12.467Z,99.9
2018-08-25T07:27:20.051Z,99.9
2018-08-25T07:28:27.233Z,99.9
2018-08-25T07:29:34.461Z,99.9
2018-08-25T07:30:41.715Z,99.9
2018-08-25T07:31:48.932Z,99.9
2018-08-25T07:32:56.185Z,99.9
2018-08-25T07:34:03.428Z,99.9
2018-08-25T07:35:10.666Z,99.9
2018-08-25T07:36:17.881Z,99.9
2018-08-25T07:37:25.098Z,99.9
2018-08-25T07:38:32.055Z,99.9
2018-08-25T07:39:39.287Z,99.9
2018-08-25T07:40:46.526Z,99.9
2018-08-25T07:41:53.480Z,99.9
2018-08-25T07:43:00.700Z,99.9
2018-08-25T07:44:08.179Z,99.9
2018-08-25T07:45:15.518Z,99.9
2018-08-25T07:46:23.110Z,99.9
2018-08-25T07:47:30.334Z,99.9
2018-08-25T07:48:37.596Z,99.9
2018-08-25T07:49:45.052Z,99.9
2018-08-25T07:50:52.273Z,99.9
2018-08-25T07:51:59.517Z,99.9
2018-08-25T07:53:06.737Z,99.9
2018-08-25T07:54:13.971Z,99.9
2018-08-25T07:55:21.431Z,99.9
2018-08-25T07:56:28.662Z,99.9
2018-08-25T07:57:35.625Z,99.9
2018-08-25T07:58:42.580Z,99.9
2018-08-25T07:59:49.796Z,99.7
2018-08-25T08:00:57.019Z,99.8
2018-08-25T08:02:04.266Z,98.9
2018-08-25T08:03:11.209Z,97.8
2018-08-25T08:04:18.448Z,98.4
2018-08-25T08:05:25.676Z,99.9
2018-08-25T08:06:32.989Z,99.9
2018-08-25T08:07:40.237Z,99.9
2018-08-25T08:08:47.498Z,98.6
2018-08-25T08:09:54.720Z,99.9
2018-08-25T08:11:01.685Z,97
2018-08-25T08:12:08.937Z,96.8
2018-08-25T08:13:16.339Z,99
2018-08-25T08:14:23.558Z,98.7
2018-08-25T08:15:30.773Z,95
2018-08-25T08:16:37.730Z,96.7
2018-08-25T08:17:44.668Z,97.7
2018-08-25T08:18:51.902Z,91.6
2018-08-25T08:19:59.124Z,96.7
2018-08-25T08:21:06.364Z,93.6
2018-08-25T08:22:13.337Z,93.4
2018-08-25T08:23:20.567Z,95.1
2018-08-25T08:24:27.806Z,91.8
2018-08-25T08:25:35.043Z,91.7
2018-08-25T08:26:42.501Z,90.9
2018-08-25T08:27:49.452Z,92.6
2018-08-25T08:28:56.696Z,90.8
2018-08-25T08:30:03.923Z,90.8
2018-08-25T08:31:11.370Z,91.2
2018-08-25T08:32:18.605Z,92.6
2018-08-25T08:33:26.062Z,90
2018-08-25T08:34:33.282Z,91
2018-08-25T08:35:40.735Z,90.9
2018-08-25T08:36:47.959Z,90.1
2018-08-25T08:37:55.197Z,92.6
2018-08-25T08:39:02.152Z,91.6
2018-08-25T08:40:09.395Z,91.3
2018-08-25T08:41:16.627Z,93.1
2018-08-25T08:42:24.112Z,94.7
2018-08-25T08:43:31.839Z,93.8
2018-08-25T08:44:39.294Z,94.9
2018-08-25T08:45:46.530Z,94.2
2018-08-25T08:46:53.426Z,99.3
2018-08-25T08:48:00.668Z,98.5
2018-08-25T08:49:07.915Z,99.9
2018-08-25T08:50:15.148Z,99.9
2018-08-25T08:51:22.486Z,99.9
2018-08-25T08:52:29.768Z,99.9
2018-08-25T08:53:37.007Z,99.9
2018-08-25T08:54:43.954Z,99.9
2018-08-25T08:55:51.371Z,99.9
2018-08-25T08:56:58.593Z,99.9
2018-08-25T08:58:05.889Z,99.9
2018-08-25T08:59:13.145Z,99.9
2018-08-25T09:00:20.359Z,99.9
2018-08-25T09:01:27.583Z,99.9
2018-08-25T09:02:34.557Z,99.9
2018-08-25T09:03:41.771Z,99.9
2018-08-25T09:04:49.025Z,99.9
2018-08-25T09:05:55.987Z,99.9
2018-08-25T09:07:03.228Z,99.9
2018-08-25T09:08:10.466Z,99.9
2018-08-25T09:09:17.424Z,99.9
2018-08-25T09:10:24.648Z,99.9
2018-08-25T09:11:32.178Z,99.9
2018-08-25T09:12:40.121Z,99.9
2018-08-25T09:13:47.309Z,99.9
2018-08-25T09:14:54.251Z,99.9
2018-08-25T09:16:01.491Z,99.9
2018-08-25T09:17:08.717Z,99.9
2018-08-25T09:18:15.725Z,99.9
2018-08-25T09:19:23.172Z,99.9
2018-08-25T09:20:30.660Z,99.9
2018-08-25T09:21:37.870Z,99.9
2018-08-25T09:22:45.347Z,99.9
2018-08-25T09:23:52.572Z,99.9
2018-08-25T09:25:00.027Z,99.9
2018-08-25T09:26:07.244Z,99.9
2018-08-25T09:27:14.527Z,99.9
2018-08-25T09:28:21.808Z,99.9
2018-08-25T09:29:29.044Z,99.9
2018-08-25T09:30:36.266Z,99.9
2018-08-25T09:31:43.486Z,99.9
2018-08-25T09:32:50.722Z,99.9
2018-08-25T09:35:19.841Z,99.9
2018-08-25T09:36:27.261Z,99.9
2018-08-25T09:37:35.366Z,99.9
2018-08-25T09:38:42.820Z,99.9
2018-08-25T09:39:50.048Z,99.9
2018-08-25T09:40:57.258Z,99.9
2018-08-25T09:42:04.480Z,99.9
2018-08-25T09:43:11.416Z,99.9
2018-08-25T09:44:18.632Z,99.9
2018-08-25T09:45:25.871Z,99.9
2018-08-25T09:46:33.112Z,99.9
2018-08-25T09:47:40.353Z,99.9
2018-08-25T09:48:47.614Z,99.9
2018-08-25T09:49:54.837Z,99.9
2018-08-25T09:51:02.052Z,99.9
2018-08-25T09:52:09.268Z,99.9
2018-08-25T09:53:16.487Z,99.9
2018-08-25T09:54:23.915Z,99.9
2018-08-25T09:55:31.172Z,99.9
2018-08-25T09:56:38.107Z,99.9
2018-08-25T09:57:45.335Z,99.9
2018-08-25T09:58:52.598Z,99.9
2018-08-25T09:59:59.867Z,99.9
2018-08-25T10:01:07.096Z,99.9
2018-08-25T10:02:14.322Z,99.9
2018-08-25T10:03:21.543Z,99.9
2018-08-25T10:04:28.763Z,99.9
2018-08-25T10:05:36.000Z,99.9
2018-08-25T10:06:43.244Z,99.9
2018-08-25T10:07:50.498Z,99.9
2018-08-25T10:08:57.455Z,99.9
2018-08-25T10:10:04.395Z,99.9
2018-08-25T10:11:11.608Z,99.9
2018-08-25T10:12:18.822Z,99.9
2018-08-25T10:13:26.039Z,99.9
2018-08-25T10:14:33.003Z,99.9
2018-08-25T10:15:40.220Z,99.9
2018-08-25T10:16:47.692Z,99.9
2018-08-25T10:17:55.246Z,99.9
2018-08-25T10:19:02.217Z,99.9
2018-08-25T10:20:09.438Z,99.9
2018-08-25T10:21:16.653Z,99.9
2018-08-25T10:22:23.910Z,99.9
2018-08-25T10:23:31.228Z,99.9
2018-08-25T10:24:38.763Z,99.9
2018-08-25T10:25:45.998Z,99.9
2018-08-25T10:26:52.959Z,99.9
2018-08-25T10:28:00.194Z,99.9
2018-08-25T10:29:07.506Z,99.9
2018-08-25T10:30:15.506Z,99.9
2018-08-25T10:31:22.723Z,99.9
2018-08-25T10:32:29.952Z,99.9
2018-08-25T10:33:37.188Z,99.9
2018-08-25T10:34:44.428Z,99.9
2018-08-25T10:35:51.732Z,99.9
2018-08-25T10:36:59.181Z,99.9
2018-08-25T10:38:06.403Z,99.9
2018-08-25T10:39:13.625Z,99.9
2018-08-25T10:40:20.863Z,99.9
2018-08-25T10:41:28.109Z,99.9
2018-08-25T10:42:35.357Z,99.9
2018-08-25T10:43:42.538Z,99.9
2018-08-25T10:44:49.761Z,99.9
2018-08-25T10:45:56.979Z,99.9
2018-08-25T10:47:04.203Z,99.9
2018-08-25T10:48:11.496Z,99.9
2018-08-25T10:49:19.210Z,99.9
2018-08-25T10:50:25.901Z,99.9
2018-08-25T10:51:33.140Z,99.9
2018-08-25T10:52:40.372Z,99.9
2018-08-25T10:53:47.330Z,99.9
2018-08-25T10:54:54.618Z,99.9
2018-08-25T10:56:02.063Z,99.9
2018-08-25T10:57:09.502Z,99.9
2018-08-25T10:58:16.742Z,99.9
2018-08-25T10:59:23.962Z,99.9
2018-08-25T11:00:31.333Z,99.9
2018-08-25T11:01:38.573Z,99.9
2018-08-25T11:02:45.556Z,99.9
2018-08-25T11:03:52.774Z,99.9
2018-08-25T11:05:00.026Z,99.9
2018-08-25T11:06:07.482Z,99.9
2018-08-25T11:07:14.710Z,99.9
2018-08-25T11:08:22.143Z,99.9
2018-08-25T11:09:29.379Z,99.9
2018-08-25T11:10:36.613Z,99.9
2018-08-25T11:11:43.830Z,99.9
2018-08-25T11:12:51.088Z,99.9
2018-08-25T11:13:58.320Z,99.9
2018-08-25T11:15:05.537Z,99.9
2018-08-25T11:16:12.771Z,99.9
2018-08-25T11:18:41.927Z,99.9
2018-08-25T11:19:49.161Z,99.9
2018-08-25T11:20:56.369Z,99.9
2018-08-25T11:22:03.601Z,99.9
2018-08-25T11:23:10.839Z,99.9
2018-08-25T11:24:18.170Z,99.9
2018-08-25T11:25:25.407Z,99.9
2018-08-25T11:26:32.653Z,99.9
2018-08-25T11:27:39.873Z,99.9
2018-08-25T11:28:47.126Z,99.9
2018-08-25T11:29:54.375Z,99.9
2018-08-25T11:31:01.601Z,99.9
2018-08-25T11:32:08.829Z,99.9
2018-08-25T11:33:16.007Z,99.9
2018-08-25T11:34:23.237Z,99.9
2018-08-25T11:35:30.455Z,99.9
2018-08-25T11:36:37.684Z,99.9
2018-08-25T11:37:45.100Z,99.9
2018-08-25T11:38:52.885Z,99.9
2018-08-25T11:39:59.861Z,99.9
2018-08-25T11:41:07.079Z,99.9
2018-08-25T11:42:14.526Z,99.9
2018-08-25T11:43:21.756Z,99.9
2018-08-25T11:44:28.997Z,99.9
2018-08-25T11:45:36.236Z,99.9
2018-08-25T11:46:43.471Z,99.9
2018-08-25T11:47:50.437Z,99.9
2018-08-25T11:48:57.681Z,99.9
2018-08-25T11:50:04.923Z,99.9
2018-08-25T11:51:12.176Z,99.9
2018-08-25T11:52:19.409Z,99.9
2018-08-25T11:53:26.658Z,99.9
2018-08-25T11:54:33.880Z,99.9
2018-08-25T11:55:41.335Z,99.9
2018-08-25T11:56:48.562Z,99.9
2018-08-25T11:57:55.797Z,99.9
2018-08-25T11:59:03.034Z,99.9
2018-08-25T12:00:10.269Z,99.9
2018-08-25T12:01:17.502Z,99.9
2018-08-25T12:02:27.799Z,99.9
2018-08-25T12:03:35.253Z,99.9
2018-08-25T12:04:42.903Z,99.9
2018-08-25T12:05:50.130Z,97.9
2018-08-25T12:06:57.375Z,99.7
2018-08-25T12:08:04.594Z,99.9
2018-08-25T12:09:12.032Z,99.9
2018-08-25T12:10:19.259Z,99.1
2018-08-25T12:11:26.509Z,95.4
2018-08-25T12:12:33.744Z,94.7
2018-08-25T12:13:40.978Z,94.9
2018-08-25T12:14:48.207Z,97.6
2018-08-25T12:15:55.433Z,94.5
2018-08-25T12:17:02.120Z,96.3
2018-08-25T12:18:09.355Z,96.5
2018-08-25T12:19:16.592Z,95.8
2018-08-25T12:20:23.833Z,96.5
2018-08-25T12:21:31.082Z,95
2018-08-25T12:22:38.044Z,92.6
2018-08-25T12:23:45.295Z,93.1
2018-08-25T12:24:52.522Z,96.8
2018-08-25T12:25:59.757Z,95.3
2018-08-25T12:27:06.973Z,95.5
2018-08-25T12:28:14.211Z,96.9
2018-08-25T12:29:21.448Z,97.3
2018-08-25T12:30:28.695Z,96.5
2018-08-25T12:31:36.105Z,95.9
2018-08-25T12:32:43.320Z,93.8
2018-08-25T12:33:50.772Z,91.3
2018-08-25T12:34:58.011Z,90.6
2018-08-25T12:36:05.453Z,90.7
2018-08-25T12:37:12.676Z,91.9
2018-08-25T12:38:19.900Z,91.8
2018-08-25T12:39:27.183Z,91
2018-08-25T12:40:34.690Z,90
2018-08-25T12:41:41.650Z,92.9
2018-08-25T12:42:48.893Z,91.2
2018-08-25T12:43:55.844Z,90.7
2018-08-25T12:45:03.159Z,90.2
2018-08-25T12:46:10.808Z,85.1
2018-08-25T12:47:18.039Z,91
2018-08-25T12:48:25.266Z,89.3
2018-08-25T12:49:32.496Z,90.4
2018-08-25T12:50:39.437Z,86.9
2018-08-25T12:51:46.830Z,86.8
2018-08-25T12:52:54.556Z,85.8
2018-08-25T12:54:01.797Z,86.5
2018-08-25T12:55:09.038Z,87.7
2018-08-25T12:56:16.355Z,84.3
2018-08-25T12:57:23.569Z,82.3
2018-08-25T12:58:30.820Z,82.4
2018-08-25T12:59:38.042Z,83.8
2018-08-25T13:00:45.510Z,87.6
2018-08-25T13:01:52.727Z,84.3
2018-08-25T13:03:00.168Z,82.5
2018-08-25T13:04:07.387Z,85
2018-08-25T13:05:14.842Z,71.2
2018-08-25T13:06:22.087Z,74.9
2018-08-25T13:07:29.365Z,75.8
2018-08-25T13:08:36.485Z,82.8
2018-08-25T13:09:43.438Z,80.4
2018-08-25T13:10:50.683Z,76.6
2018-08-25T13:11:58.146Z,80.1
2018-08-25T13:13:05.426Z,84.9
2018-08-25T13:14:13.159Z,84.3
2018-08-25T13:15:20.377Z,75.7
2018-08-25T13:16:27.828Z,75.7
2018-08-25T13:17:34.523Z,72.7
2018-08-25T13:18:41.802Z,65.1
2018-08-25T13:19:49.103Z,72.6
2018-08-25T13:20:56.342Z,61.4
2018-08-25T13:22:03.628Z,63.3
2018-08-25T13:23:10.969Z,60.2
2018-08-25T13:24:18.204Z,57
2018-08-25T13:25:25.171Z,52
2018-08-25T13:26:32.397Z,50.8
2018-08-25T13:27:39.630Z,52.2
2018-08-25T13:28:46.853Z,55.4
2018-08-25T13:29:54.034Z,60.8
2018-08-25T13:31:01.399Z,60.5
2018-08-25T13:32:09.210Z,62.5
2018-08-25T13:33:16.447Z,59
2018-08-25T13:34:23.402Z,52
2018-08-25T13:35:30.631Z,55.8
2018-08-25T13:36:37.877Z,58
2018-08-25T13:37:45.103Z,53.2
2018-08-25T13:38:52.339Z,56.7
2018-08-25T13:39:59.611Z,60
2018-08-25T13:41:07.399Z,57
2018-08-25T13:42:14.637Z,61.7
2018-08-25T13:43:21.868Z,56
2018-08-25T13:44:29.085Z,50.2
2018-08-25T13:45:36.326Z,51.7
2018-08-25T13:46:43.567Z,53.8
2018-08-25T13:47:50.810Z,52.9
2018-08-25T13:48:58.030Z,56
2018-08-25T13:50:05.255Z,57
2018-08-25T13:51:12.220Z,50.9
2018-08-25T13:52:19.438Z,48.9
2018-08-25T13:53:26.678Z,50
2018-08-25T13:54:33.916Z,52.8
2018-08-25T13:55:41.147Z,56.7
2018-08-25T13:56:48.596Z,52.9
2018-08-25T13:57:55.817Z,49.9
2018-08-25T13:59:03.270Z,52.7
2018-08-25T14:00:10.492Z,56.3
2018-08-25T14:01:17.735Z,53.2
2018-08-25T14:02:24.982Z,53.6
2018-08-25T14:03:32.218Z,57.7
2018-08-25T14:04:39.454Z,56.4
2018-08-25T14:05:46.694Z,58.4
2018-08-25T14:06:53.659Z,61.6
2018-08-25T14:08:00.905Z,66.5
2018-08-25T14:09:08.337Z,65.8
2018-08-25T14:10:15.591Z,66.2
2018-08-25T14:11:22.825Z,63.7
2018-08-25T14:12:30.078Z,68.4
2018-08-25T14:13:37.305Z,68.8
2018-08-25T14:14:44.760Z,68.8
2018-08-25T14:15:52.084Z,70.4
2018-08-25T14:16:59.396Z,67
2018-08-25T14:18:06.406Z,70.7
2018-08-25T14:19:13.655Z,69.1
2018-08-25T14:20:20.896Z,69.4
2018-08-25T14:21:28.132Z,67.9
2018-08-25T14:22:35.357Z,70.9
2018-08-25T14:23:42.817Z,67.5
2018-08-25T14:24:50.042Z,70
2018-08-25T14:25:57.497Z,71.9
2018-08-25T14:27:04.721Z,72.2
2018-08-25T14:28:11.941Z,73
2018-08-25T14:29:19.177Z,68.6
2018-08-25T14:30:26.412Z,59.3
2018-08-25T14:31:33.646Z,47.2
2018-08-25T14:32:40.882Z,46.3
2018-08-25T14:33:48.106Z,45.9
2018-08-25T14:34:55.363Z,45.8
2018-08-25T14:36:02.580Z,41.4
2018-08-25T14:37:09.840Z,45.2
2018-08-25T14:38:17.065Z,45
2018-08-25T14:39:24.284Z,40.7
2018-08-25T14:40:31.256Z,41.4
2018-08-25T14:41:38.569Z,38.6
2018-08-25T14:42:46.114Z,39.9
2018-08-25T14:43:53.360Z,38.8
2018-08-25T14:45:00.607Z,35
2018-08-25T14:46:07.556Z,40.7
2018-08-25T14:47:14.807Z,31.3
2018-08-25T14:48:22.361Z,32.6
2018-08-25T14:49:29.624Z,34.3
2018-08-25T14:50:37.076Z,34.1
2018-08-25T14:51:44.303Z,31.9
2018-08-25T14:52:51.759Z,30.5
2018-08-25T14:53:58.717Z,30
2018-08-25T14:55:05.987Z,27
2018-08-25T14:56:13.219Z,27.8
2018-08-25T14:57:20.466Z,30.4
2018-08-25T14:58:27.424Z,26.7
2018-08-25T14:59:34.664Z,27.6
2018-08-25T15:00:41.931Z,24.6
2018-08-25T15:01:49.473Z,25.8